Time,TemperatureF,DewpointF,PressureIn,WindDirection,WindDirectionDegrees,WindSpeedMPH,WindSpeedGustMPH,Humidity,HourlyPrecipIn,Conditions,Clouds,dailyrainin,SoftwareType,DateUTC
2013-01-29 00:02:00,37.0,19.7,29.64,SSW,202,5.1,-999.0,49,-99.99,,,0.00,Acu-Link.com,2013-01-29 07:02:00,
2013-01-29 00:18:00,36.9,19.5,29.65,WSW,247,4.3,-999.0,49,-99.99,,,0.00,Acu-Link.com,2013-01-29 07:18:00,
2013-01-29 00:33:00,36.5,20.1,29.64,West,270,3.8,-999.0,51,-99.99,,,0.00,Acu-Link.com,2013-01-29 07:33:00,
2013-01-29 00:48:00,36.1,20.2,29.64,WSW,247,3.8,-999.0,52,-99.99,,,0.00,Acu-Link.com,2013-01-29 07:48:00,
2013-01-29 01:03:00,35.8,20.3,29.63,WSW,247,4.3,-999.0,53,-99.99,,,0.00,Acu-Link.com,2013-01-29 08:03:00,
2013-01-29 01:18:00,35.8,19.9,29.62,West,270,4.3,-999.0,52,-99.99,,,0.00,Acu-Link.com,2013-01-29 08:18:00,
2013-01-29 01:34:00,35.6,19.7,29.61,South,180,5.1,-999.0,52,-99.99,,,0.00,Acu-Link.com,2013-01-29 08:34:00,
2013-01-29 01:49:00,35.2,19.4,29.61,West,270,2.7,-999.0,52,-99.99,,,0.00,Acu-Link.com,2013-01-29 08:49:00,
2013-01-29 02:15:00,35.1,19.7,29.60,West,270,9.4,-999.0,53,-99.99,,,0.00,Acu-Link.com,2013-01-29 09:15:00,
2013-01-29 02:30:00,34.9,19.5,29.59,West,270,9.4,-999.0,53,-99.99,,,0.00,Acu-Link.com,2013-01-29 09:30:00,
2013-01-29 02:46:00,34.7,19.3,29.59,SW,225,11.0,-999.0,53,-99.99,,,0.00,Acu-Link.com,2013-01-29 09:46:00,
2013-01-29 03:01:00,34.3,19.4,29.58,West,270,7.8,-999.0,54,-99.99,,,0.00,Acu-Link.com,2013-01-29 10:01:00,
2013-01-29 03:16:00,34.0,19.5,29.58,WNW,292,11.9,-999.0,55,-99.99,,,0.00,Acu-Link.com,2013-01-29 10:16:00,
2013-01-29 03:31:00,33.6,19.6,29.58,WSW,247,9.4,-999.0,56,-99.99,,,0.00,Acu-Link.com,2013-01-29 10:31:00,
2013-01-29 03:46:00,33.1,19.9,29.57,SW,225,6.3,-999.0,58,-99.99,,,0.00,Acu-Link.com,2013-01-29 10:46:00,
2013-01-29 04:01:00,32.9,20.2,29.56,SW,225,4.7,-999.0,59,-99.99,,,0.00,Acu-Link.com,2013-01-29 11:01:00,
2013-01-29 04:17:00,32.9,20.2,29.56,WSW,247,7.8,-999.0,59,-99.99,,,0.00,Acu-Link.com,2013-01-29 11:17:00,
2013-01-29 04:32:00,33.3,20.5,29.54,WSW,247,8.9,-999.0,59,-99.99,,,0.00,Acu-Link.com,2013-01-29 11:32:00,
2013-01-29 04:47:00,32.7,20.4,29.54,WSW,247,4.7,-999.0,60,-99.99,,,0.00,Acu-Link.com,2013-01-29 11:47:00,
2013-01-29 05:02:00,32.0,20.5,29.53,SW,225,6.3,-999.0,62,-99.99,,,0.00,Acu-Link.com,2013-01-29 12:02:00,
2013-01-29 05:18:00,31.1,20.4,29.54,WSW,247,2.7,-999.0,64,-99.99,,,0.00,Acu-Link.com,2013-01-29 12:18:00,
2013-01-29 05:33:00,30.4,20.0,29.54,WSW,247,2.2,-999.0,65,-99.99,,,0.00,Acu-Link.com,2013-01-29 12:33:00,
2013-01-29 05:48:00,29.5,19.5,29.54,SSW,202,2.7,-999.0,66,-99.99,,,0.00,Acu-Link.com,2013-01-29 12:48:00,
2013-01-29 06:03:00,29.5,19.9,29.54,SSW,202,2.7,-999.0,67,-99.99,,,0.00,Acu-Link.com,2013-01-29 13:03:00,
2013-01-29 06:18:00,28.4,19.9,29.54,SSE,157,3.8,-999.0,70,-99.99,,,0.00,Acu-Link.com,2013-01-29 13:18:00,
2013-01-29 06:34:00,28.2,20.0,29.53,SSE,157,4.3,-999.0,71,-99.99,,,0.00,Acu-Link.com,2013-01-29 13:34:00,
2013-01-29 06:49:00,29.5,22.2,29.53,West,270,11.0,-999.0,74,-99.99,,,0.00,Acu-Link.com,2013-01-29 13:49:00,
2013-01-29 07:04:00,30.4,23.1,29.54,West,270,7.8,-999.0,74,-99.99,,,0.00,Acu-Link.com,2013-01-29 14:04:00,
2013-01-29 07:19:00,30.2,23.9,29.54,West,270,5.8,-999.0,77,-99.99,,,0.00,Acu-Link.com,2013-01-29 14:19:00,
2013-01-29 07:34:00,29.8,23.8,29.54,SW,225,3.1,-999.0,78,-99.99,,,0.00,Acu-Link.com,2013-01-29 14:34:00,
2013-01-29 07:50:00,29.8,23.2,29.55,WSW,247,4.3,-999.0,76,-99.99,,,0.00,Acu-Link.com,2013-01-29 14:50:00,
2013-01-29 08:05:00,29.7,23.0,29.56,WSW,247,3.8,-999.0,76,-99.99,,,0.00,Acu-Link.com,2013-01-29 15:05:00,
2013-01-29 08:20:00,30.2,23.2,29.56,WSW,247,2.2,-999.0,75,-99.99,,,0.00,Acu-Link.com,2013-01-29 15:20:00,
2013-01-29 08:35:00,31.1,22.8,29.56,West,270,2.7,-999.0,71,-99.99,,,0.00,Acu-Link.com,2013-01-29 15:35:00,
2013-01-29 08:50:00,31.8,21.4,29.57,WSW,247,5.1,-999.0,65,-99.99,,,0.00,Acu-Link.com,2013-01-29 15:50:00,
2013-01-29 09:06:00,32.0,20.9,29.56,West,270,6.3,-999.0,63,-99.99,,,0.00,Acu-Link.com,2013-01-29 16:06:00,
2013-01-29 09:21:00,32.9,22.1,29.56,NW,315,1.1,-999.0,64,-99.99,,,0.00,Acu-Link.com,2013-01-29 16:21:00,
2013-01-29 09:36:00,32.5,19.0,29.57,WNW,292,5.8,-999.0,57,-99.99,,,0.00,Acu-Link.com,2013-01-29 16:36:00,
2013-01-29 09:51:00,32.9,17.2,29.56,SSW,202,6.3,-999.0,52,-99.99,,,0.00,Acu-Link.com,2013-01-29 16:51:00,
2013-01-29 10:07:00,33.4,14.9,29.57,WSW,247,11.9,-999.0,46,-99.99,,,0.00,Acu-Link.com,2013-01-29 17:07:00,
2013-01-29 10:22:00,33.3,13.2,29.56,NW,315,11.9,-999.0,43,-99.99,,,0.00,Acu-Link.com,2013-01-29 17:22:00,
2013-01-29 10:37:00,34.2,14.6,29.57,NW,315,11.0,-999.0,44,-99.99,,,0.00,Acu-Link.com,2013-01-29 17:37:00,
2013-01-29 10:52:00,34.3,14.2,29.57,WNW,292,6.3,-999.0,43,-99.99,,,0.00,Acu-Link.com,2013-01-29 17:52:00,
2013-01-29 11:07:00,34.3,14.7,29.57,NNW,337,10.3,-999.0,44,-99.99,,,0.00,Acu-Link.com,2013-01-29 18:07:00,
2013-01-29 11:23:00,33.6,16.0,29.57,NNW,337,7.8,-999.0,48,-99.99,,,0.00,Acu-Link.com,2013-01-29 18:23:00,
2013-01-29 11:38:00,36.0,16.7,29.56,WNW,292,10.3,-999.0,45,-99.99,,,0.00,Acu-Link.com,2013-01-29 18:38:00,
2013-01-29 11:53:00,35.1,16.4,29.56,WNW,292,8.9,-999.0,46,-99.99,,,0.00,Acu-Link.com,2013-01-29 18:53:00,
2013-01-29 12:08:00,35.6,16.9,29.56,West,270,8.9,-999.0,46,-99.99,,,0.00,Acu-Link.com,2013-01-29 19:08:00,
2013-01-29 12:23:00,34.2,15.6,29.55,WNW,292,11.0,-999.0,46,-99.99,,,0.00,Acu-Link.com,2013-01-29 19:23:00,
2013-01-29 12:39:00,34.9,11.9,29.55,WSW,247,6.7,-999.0,38,-99.99,,,0.00,Acu-Link.com,2013-01-29 19:39:00,
2013-01-29 12:54:00,36.9,11.1,29.54,WNW,292,9.4,-999.0,34,-99.99,,,0.00,Acu-Link.com,2013-01-29 19:54:00,
2013-01-29 13:09:00,36.9,11.8,29.54,SSW,202,15.0,-999.0,35,-99.99,,,0.00,Acu-Link.com,2013-01-29 20:09:00,
2013-01-29 13:24:00,36.0,9.0,29.54,West,270,11.9,-999.0,32,-99.99,,,0.00,Acu-Link.com,2013-01-29 20:24:00,
2013-01-29 13:39:00,36.3,8.6,29.54,NW,315,15.0,-999.0,31,-99.99,,,0.01,Acu-Link.com,2013-01-29 20:39:00,
2013-01-29 13:55:00,37.6,9.0,29.54,NNW,337,17.0,-999.0,30,-99.99,,,0.01,Acu-Link.com,2013-01-29 20:55:00,
2013-01-29 14:10:00,36.5,7.3,29.54,NW,315,16.6,-999.0,29,-99.99,,,0.02,Acu-Link.com,2013-01-29 21:10:00,
2013-01-29 14:25:00,36.1,6.2,29.55,West,270,14.5,-999.0,28,-99.99,,,0.04,Acu-Link.com,2013-01-29 21:25:00,
2013-01-29 14:40:00,36.1,7.0,29.54,WNW,292,18.6,-999.0,29,-99.99,,,0.05,Acu-Link.com,2013-01-29 21:40:00,
2013-01-29 14:56:00,36.3,7.1,29.55,SSW,202,18.6,-999.0,29,-99.99,,,0.05,Acu-Link.com,2013-01-29 21:56:00,
2013-01-29 15:11:00,36.0,5.3,29.53,NW,315,22.8,-999.0,27,-99.99,,,0.05,Acu-Link.com,2013-01-29 22:11:00,
2013-01-29 15:26:00,36.0,4.4,29.53,West,270,28.4,-999.0,26,-99.99,,,0.13,Acu-Link.com,2013-01-29 22:26:00,
2013-01-29 15:41:00,35.2,3.0,29.53,WSW,247,23.3,-999.0,25,-99.99,,,0.39,Acu-Link.com,2013-01-29 22:41:00,
2013-01-29 15:56:00,35.8,3.4,29.54,NNW,337,18.6,-999.0,25,-99.99,,,0.45,Acu-Link.com,2013-01-29 22:56:00,
2013-01-29 16:12:00,34.9,5.1,29.56,WNW,292,20.1,-999.0,28,-99.99,,,0.48,Acu-Link.com,2013-01-29 23:12:00,
2013-01-29 16:27:00,34.7,6.5,29.58,West,270,21.3,-999.0,30,-99.99,,,0.50,Acu-Link.com,2013-01-29 23:27:00,
2013-01-29 16:42:00,34.2,7.4,29.59,WNW,292,18.6,-999.0,32,-99.99,,,0.56,Acu-Link.com,2013-01-29 23:42:00,
2013-01-29 16:57:00,33.8,7.1,29.59,WNW,292,9.4,-999.0,32,-99.99,,,0.60,Acu-Link.com,2013-01-29 23:57:00,
2013-01-29 17:12:00,33.1,8.4,29.60,WSW,247,11.4,-999.0,35,-99.99,,,0.60,Acu-Link.com,2013-01-30 00:12:00,
2013-01-29 17:28:00,32.5,8.6,29.61,WNW,292,18.1,-999.0,36,-99.99,,,0.60,Acu-Link.com,2013-01-30 00:28:00,
2013-01-29 17:43:00,32.2,8.9,29.61,NNW,337,13.4,-999.0,37,-99.99,,,0.60,Acu-Link.com,2013-01-30 00:43:00,
2013-01-29 17:58:00,32.0,9.9,29.62,WNW,292,16.1,-999.0,39,-99.99,,,0.60,Acu-Link.com,2013-01-30 00:58:00,
2013-01-29 18:13:00,31.6,11.2,29.62,WNW,292,8.9,-999.0,42,-99.99,,,0.60,Acu-Link.com,2013-01-30 01:13:00,
2013-01-29 18:28:00,31.5,11.0,29.63,West,270,10.3,-999.0,42,-99.99,,,0.60,Acu-Link.com,2013-01-30 01:28:00,
2013-01-29 18:44:00,31.5,10.5,29.64,WNW,292,16.1,-999.0,41,-99.99,,,0.60,Acu-Link.com,2013-01-30 01:44:00,
2013-01-29 18:59:00,31.1,10.2,29.65,West,270,11.9,-999.0,41,-99.99,,,0.60,Acu-Link.com,2013-01-30 01:59:00,
2013-01-29 19:14:00,30.7,9.9,29.67,NNW,337,13.4,-999.0,41,-99.99,,,0.60,Acu-Link.com,2013-01-30 02:14:00,
2013-01-29 19:29:00,30.6,9.7,29.67,SSW,202,6.3,-999.0,41,-99.99,,,0.60,Acu-Link.com,2013-01-30 02:29:00,
2013-01-29 19:45:00,30.4,10.6,29.67,West,270,8.9,-999.0,43,-99.99,,,0.60,Acu-Link.com,2013-01-30 02:45:00,
2013-01-29 20:00:00,30.4,11.1,29.66,WNW,292,22.8,-999.0,44,-99.99,,,0.60,Acu-Link.com,2013-01-30 03:00:00,
2013-01-29 20:15:00,30.4,11.1,29.68,WNW,292,16.1,-999.0,44,-99.99,,,0.60,Acu-Link.com,2013-01-30 03:15:00,
2013-01-29 20:30:00,30.0,11.3,29.68,WNW,292,11.4,-999.0,45,-99.99,,,0.60,Acu-Link.com,2013-01-30 03:30:00,
2013-01-29 20:46:00,29.5,11.8,30.07,WNW,292,12.5,-999.0,47,-99.99,,,0.60,Acu-Link.com,2013-01-30 03:46:00,
2013-01-29 21:01:00,29.3,12.1,29.70,NNW,337,13.0,-999.0,48,-99.99,,,0.60,Acu-Link.com,2013-01-30 04:01:00,
2013-01-29 21:16:00,29.1,12.4,29.71,WNW,292,15.0,-999.0,49,-99.99,,,0.60,Acu-Link.com,2013-01-30 04:16:00,
2013-01-29 21:32:00,28.8,12.5,29.71,West,270,16.1,-999.0,50,-99.99,,,0.60,Acu-Link.com,2013-01-30 04:32:00,
2013-01-29 21:47:00,28.8,12.9,29.72,West,270,12.5,-999.0,51,-99.99,,,0.60,Acu-Link.com,2013-01-30 04:47:00,
2013-01-29 22:17:00,28.8,13.4,29.73,West,270,11.0,-999.0,52,-99.99,,,0.60,Acu-Link.com,2013-01-30 05:17:00,
2013-01-29 22:33:00,28.4,13.5,29.74,West,270,11.4,-999.0,53,-99.99,,,0.60,Acu-Link.com,2013-01-30 05:33:00,
2013-01-29 22:48:00,28.2,13.7,29.75,SW,225,11.9,-999.0,54,-99.99,,,0.60,Acu-Link.com,2013-01-30 05:48:00,
2013-01-29 23:03:00,28.0,14.0,29.76,WNW,292,9.8,-999.0,55,-99.99,,,0.60,Acu-Link.com,2013-01-30 06:03:00,
2013-01-29 23:18:00,28.2,14.6,29.76,NNW,337,8.3,-999.0,56,-99.99,,,0.60,Acu-Link.com,2013-01-30 06:18:00,
2013-01-29 23:33:00,28.4,14.7,29.77,NW,315,9.4,-999.0,56,-99.99,,,0.60,Acu-Link.com,2013-01-30 06:33:00,
2013-01-29 23:49:00,27.9,14.6,29.78,WNW,292,6.7,-999.0,57,-99.99,,,0.60,Acu-Link.com,2013-01-30 06:49:00,